createdAt,value
2022-11-25T00:01:12.067Z,10.30
2022-11-25T00:03:39.914Z,16.33
2022-11-25T00:06:17.408Z,12.82
2022-11-25T00:08:45.661Z,12.63
2022-11-25T00:11:13.875Z,12.75
2022-11-25T00:13:42.803Z,14.85
2022-11-25T00:16:11.661Z,15.73
2022-11-25T00:18:39.285Z,15.07
2022-11-25T00:21:11.015Z,10.03
2022-11-25T00:23:39.317Z,15.32
2022-11-25T00:26:10.609Z,14.30
2022-11-25T00:28:38.082Z,12.90
2022-11-25T00:31:09.156Z,11.45
2022-11-25T00:33:36.700Z,11.73
2022-11-25T00:36:05.487Z,8.75
2022-11-25T00:38:33.045Z,12.65
2022-11-25T00:41:19.075Z,14.98
2022-11-25T00:44:05.435Z,12.25
2022-11-25T00:46:32.890Z,13.70
2022-11-25T00:49:00.452Z,12.88
2022-11-25T00:51:28.522Z,11.75
2022-11-25T00:53:58.875Z,13.88
2022-11-25T00:56:27.328Z,11.60
2022-11-25T00:58:54.990Z,14.80
2022-11-25T01:01:22.915Z,13.63
2022-11-25T01:03:52.787Z,14.32
2022-11-25T01:06:20.415Z,16.20
2022-11-25T01:08:47.686Z,15.95
2022-11-25T01:11:16.400Z,11.30
2022-11-25T01:13:43.729Z,16.38
2022-11-25T01:16:13.859Z,13.82
2022-11-25T01:18:41.095Z,9.40
2022-11-25T01:21:10.084Z,15.90
2022-11-25T01:23:38.166Z,12.57
2022-11-25T01:26:05.888Z,14.52
2022-11-25T01:28:33.571Z,16.73
2022-11-25T01:31:01.837Z,12.13
2022-11-25T01:33:33.616Z,13.63
2022-11-25T01:36:04.231Z,14.87
2022-11-25T01:38:31.986Z,14.40
2022-11-25T01:40:59.689Z,14.30
2022-11-25T01:43:28.594Z,14.82
2022-11-25T01:46:07.783Z,12.70
2022-11-25T01:48:48.210Z,15.40
2022-11-25T01:51:22.782Z,19.35
2022-11-25T01:53:51.261Z,17.10
2022-11-25T01:56:20.148Z,10.88
2022-11-25T01:58:48.709Z,17.08
2022-11-25T02:01:16.875Z,15.13
2022-11-25T02:03:46.047Z,17.50
2022-11-25T02:06:20.093Z,17.58
2022-11-25T02:08:50.231Z,11.85
2022-11-25T02:11:18.758Z,18.48
2022-11-25T02:13:46.980Z,20.97
2022-11-25T02:16:14.339Z,16.02
2022-11-25T02:18:41.785Z,11.35
2022-11-25T02:21:09.268Z,15.10
2022-11-25T02:23:46.624Z,13.75
2022-11-25T02:26:14.089Z,17.63
2022-11-25T02:28:41.640Z,16.52
2022-11-25T02:31:09.240Z,16.38
2022-11-25T02:33:36.668Z,16.80
2022-11-25T02:36:05.995Z,21.23
2022-11-25T02:38:39.548Z,17.60
2022-11-25T02:41:26.883Z,15.82
2022-11-25T02:43:54.083Z,19.38
2022-11-25T02:46:23.573Z,15.77
2022-11-25T02:51:40.148Z,16.97
2022-11-25T02:54:07.881Z,15.27
2022-11-25T02:56:35.992Z,16.08
2022-11-25T02:59:03.282Z,14.57
2022-11-25T03:01:31.614Z,16.45
2022-11-25T03:03:59.170Z,19.73
2022-11-25T03:06:26.469Z,18.75
2022-11-25T03:08:53.592Z,13.18
2022-11-25T03:11:42.638Z,15.80
2022-11-25T03:14:10.506Z,15.82
2022-11-25T03:16:38.418Z,18.23
2022-11-25T03:19:05.928Z,15.57
2022-11-25T03:21:33.690Z,18.35
2022-11-25T03:24:01.505Z,17.77
2022-11-25T03:26:29.013Z,18.55
2022-11-25T03:28:56.467Z,13.50
2022-11-25T03:31:24.044Z,14.68
2022-11-25T03:33:51.535Z,10.43
2022-11-25T03:36:18.892Z,16.30
2022-11-25T03:38:46.456Z,15.23
2022-11-25T03:41:14.060Z,12.80
2022-11-25T03:43:41.464Z,12.10
2022-11-25T03:46:09.572Z,11.68
2022-11-25T03:48:37.003Z,10.27
2022-11-25T03:51:04.409Z,13.85
2022-11-25T03:53:31.767Z,15.20
2022-11-25T03:55:59.324Z,13.77
2022-11-25T03:58:26.780Z,10.68
2022-11-25T04:00:54.278Z,10.20
2022-11-25T04:03:21.817Z,12.25
2022-11-25T04:05:49.294Z,9.67
2022-11-25T04:08:16.857Z,9.00
2022-11-25T04:10:44.346Z,9.52
2022-11-25T04:13:11.993Z,7.13
2022-11-25T04:15:39.618Z,7.30
2022-11-25T04:18:06.972Z,6.70
2022-11-25T04:20:34.454Z,7.22
2022-11-25T04:23:02.803Z,9.07
2022-11-25T04:25:30.120Z,6.82
2022-11-25T04:27:57.548Z,7.55
2022-11-25T04:30:24.887Z,3.73
2022-11-25T04:32:52.338Z,5.22
2022-11-25T04:35:19.826Z,9.50
2022-11-25T04:37:47.199Z,6.80
2022-11-25T04:40:14.798Z,5.82
2022-11-25T04:42:42.490Z,5.93
2022-11-25T04:45:33.362Z,8.30
2022-11-25T04:48:00.766Z,7.13
2022-11-25T04:50:28.509Z,5.50
2022-11-25T04:52:56.352Z,5.53
2022-11-25T04:55:24.033Z,4.93
2022-11-25T04:57:51.592Z,6.40
2022-11-25T05:00:21.133Z,7.25
2022-11-25T05:02:48.479Z,6.88
2022-11-25T05:05:15.783Z,4.35
2022-11-25T05:07:43.085Z,3.20
2022-11-25T05:10:10.570Z,5.10
2022-11-25T05:12:38.137Z,4.82
2022-11-25T05:15:06.044Z,6.78
2022-11-25T05:17:33.526Z,8.45
2022-11-25T05:20:00.788Z,6.43
2022-11-25T05:22:30.097Z,7.22
2022-11-25T05:24:57.526Z,9.25
2022-11-25T05:27:25.210Z,4.45
2022-11-25T05:29:55.992Z,6.13
2022-11-25T05:32:24.079Z,6.77
2022-11-25T05:34:51.844Z,4.85
2022-11-25T05:37:24.508Z,6.22
2022-11-25T05:39:52.326Z,6.18
2022-11-25T05:42:19.842Z,4.65
2022-11-25T05:44:47.378Z,6.20
2022-11-25T05:47:16.121Z,3.42
2022-11-25T05:49:43.423Z,5.28
2022-11-25T05:52:10.708Z,5.70
2022-11-25T05:54:38.176Z,4.57
2022-11-25T05:57:05.763Z,5.47
2022-11-25T05:59:32.947Z,10.00
2022-11-25T06:02:00.262Z,4.50
2022-11-25T06:04:27.581Z,4.93
2022-11-25T06:06:54.887Z,4.05
2022-11-25T06:09:22.333Z,6.33
2022-11-25T06:11:49.849Z,5.72
2022-11-25T06:14:19.855Z,7.90
2022-11-25T06:16:46.941Z,5.88
2022-11-25T06:19:14.134Z,7.50
2022-11-25T06:21:41.325Z,5.73
2022-11-25T06:24:08.539Z,7.75
2022-11-25T06:26:35.653Z,4.28
2022-11-25T06:29:02.794Z,7.05
2022-11-25T06:31:30.002Z,7.32
2022-11-25T06:33:57.265Z,5.80
2022-11-25T06:36:24.719Z,5.53
2022-11-25T06:38:53.334Z,6.03
2022-11-25T06:41:20.919Z,6.18
2022-11-25T06:43:48.050Z,5.97
2022-11-25T06:46:19.858Z,6.70
2022-11-25T06:48:51.706Z,9.07
2022-11-25T06:51:19.337Z,8.50
2022-11-25T06:53:46.917Z,8.02
2022-11-25T06:56:14.818Z,10.50
2022-11-25T06:58:43.198Z,7.80
2022-11-25T07:01:18.703Z,13.80
2022-11-25T07:03:47.193Z,9.00
2022-11-25T07:06:15.814Z,13.23
2022-11-25T07:08:43.840Z,9.48
2022-11-25T07:11:17.655Z,7.60
2022-11-25T07:13:44.872Z,10.23
2022-11-25T07:16:12.310Z,10.63
2022-11-25T07:18:40.049Z,7.97
2022-11-25T07:21:12.365Z,9.65
2022-11-25T07:23:40.453Z,10.67
2022-11-25T07:26:12.438Z,8.90
2022-11-25T07:28:43.620Z,8.05
2022-11-25T07:31:24.340Z,11.20
2022-11-25T07:33:56.233Z,9.13
2022-11-25T07:36:24.613Z,9.00
2022-11-25T07:38:54.633Z,11.63
2022-11-25T07:41:23.997Z,11.43
2022-11-25T07:43:56.917Z,9.10
2022-11-25T07:46:27.552Z,10.80
2022-11-25T07:49:02.384Z,9.50
2022-11-25T07:51:36.829Z,14.02
2022-11-25T07:54:05.759Z,11.07
2022-11-25T07:56:34.879Z,8.20
2022-11-25T07:59:01.983Z,12.02
2022-11-25T08:01:29.500Z,11.00
2022-11-25T08:03:57.208Z,9.48
2022-11-25T08:06:25.469Z,12.25
2022-11-25T08:08:55.765Z,9.07
2022-11-25T08:11:24.748Z,10.50
2022-11-25T08:13:52.324Z,12.93
2022-11-25T08:16:20.833Z,10.35
2022-11-25T08:18:48.451Z,10.82
2022-11-25T08:21:16.713Z,13.05
2022-11-25T08:23:44.895Z,11.57
2022-11-25T08:26:17.894Z,9.23
2022-11-25T08:28:45.380Z,16.05
2022-11-25T08:31:15.033Z,10.07
2022-11-25T08:33:43.231Z,13.25
2022-11-25T08:36:11.168Z,13.32
2022-11-25T08:38:38.550Z,11.33
2022-11-25T08:41:10.533Z,13.55
2022-11-25T08:43:39.114Z,13.98
2022-11-25T08:46:11.036Z,9.95
2022-11-25T08:48:38.516Z,12.95
2022-11-25T08:51:09.575Z,12.27
2022-11-25T08:53:37.217Z,9.15
2022-11-25T08:56:04.777Z,13.25
2022-11-25T08:58:32.430Z,12.00
2022-11-25T09:01:00.409Z,10.02
2022-11-25T09:03:28.129Z,7.90
2022-11-25T09:05:55.936Z,10.15
2022-11-25T09:08:23.497Z,10.95
2022-11-25T09:10:52.578Z,9.52
2022-11-25T09:13:20.435Z,11.40
2022-11-25T09:15:50.895Z,12.23
2022-11-25T09:18:20.172Z,7.28
2022-11-25T09:20:48.135Z,9.52
2022-11-25T09:23:15.246Z,9.95
2022-11-25T09:25:42.333Z,10.80
2022-11-25T09:28:10.503Z,10.27
2022-11-25T09:30:38.307Z,7.50
2022-11-25T09:33:05.457Z,10.02
2022-11-25T09:35:33.637Z,11.07
2022-11-25T09:38:00.761Z,8.88
2022-11-25T09:40:36.310Z,10.13
2022-11-25T09:43:30.999Z,9.90
2022-11-25T09:46:29.475Z,13.43
2022-11-25T09:49:05.208Z,9.95
2022-11-25T09:51:41.052Z,11.40
2022-11-25T09:54:19.770Z,10.23
2022-11-25T09:56:50.621Z,8.32
2022-11-25T09:59:32.770Z,8.85
2022-11-25T10:02:02.448Z,7.40
2022-11-25T10:04:44.034Z,8.32
2022-11-25T10:07:14.664Z,8.93
2022-11-25T10:09:42.121Z,8.32
2022-11-25T10:12:17.441Z,7.03
2022-11-25T10:14:49.831Z,8.02
2022-11-25T10:17:40.638Z,7.35
2022-11-25T10:20:18.320Z,13.47
2022-11-25T10:22:47.610Z,10.25
2022-11-25T10:25:18.279Z,7.38
2022-11-25T10:27:48.755Z,10.07
2022-11-25T10:30:21.677Z,9.50
2022-11-25T10:33:07.960Z,11.17
2022-11-25T10:35:37.599Z,12.18
2022-11-25T10:38:06.571Z,10.43
2022-11-25T10:40:33.910Z,12.20
2022-11-25T10:43:03.326Z,8.48
2022-11-25T10:45:37.867Z,9.53
2022-11-25T10:48:18.737Z,8.35
2022-11-25T10:50:52.009Z,8.85
2022-11-25T10:53:23.664Z,12.13
2022-11-25T10:56:12.113Z,11.25
2022-11-25T10:58:42.616Z,11.63
2022-11-25T11:01:23.053Z,9.80
2022-11-25T11:04:05.105Z,8.57
2022-11-25T11:06:33.939Z,11.77
2022-11-25T11:09:01.105Z,9.70
2022-11-25T11:11:28.681Z,8.07
2022-11-25T11:14:00.901Z,11.05
2022-11-25T11:16:34.739Z,9.55
2022-11-25T11:19:02.199Z,10.93
2022-11-25T11:21:34.493Z,9.85
2022-11-25T11:24:02.536Z,9.87
2022-11-25T11:26:31.405Z,9.50
2022-11-25T11:29:00.449Z,8.98
2022-11-25T11:31:29.970Z,8.60
2022-11-25T11:33:57.452Z,10.45
2022-11-25T11:36:24.911Z,8.30
2022-11-25T11:39:05.575Z,8.77
2022-11-25T11:41:51.717Z,8.00
2022-11-25T11:44:25.326Z,9.38
2022-11-25T11:46:58.590Z,10.05
2022-11-25T11:49:30.384Z,8.07
2022-11-25T11:52:12.372Z,7.85
2022-11-25T11:54:47.304Z,8.90
2022-11-25T11:57:33.684Z,8.15
2022-11-25T12:00:04.469Z,9.57
2022-11-25T12:02:31.766Z,11.30
2022-11-25T12:05:11.514Z,9.27
2022-11-25T12:07:38.899Z,7.40
2022-11-25T12:10:18.242Z,8.43
2022-11-25T12:12:48.610Z,6.72
2022-11-25T12:15:18.625Z,10.37
2022-11-25T12:17:50.766Z,9.73
2022-11-25T12:20:23.282Z,7.05
2022-11-25T12:22:57.371Z,9.15
2022-11-25T12:25:26.720Z,9.93
2022-11-25T12:27:56.451Z,13.50
2022-11-25T12:30:24.420Z,8.07
2022-11-25T12:33:00.927Z,8.75
2022-11-25T12:35:47.110Z,12.70
2022-11-25T12:38:14.315Z,9.20
2022-11-25T12:40:43.877Z,8.47
2022-11-25T12:43:19.733Z,9.52
2022-11-25T12:45:47.560Z,8.02
2022-11-25T12:48:19.982Z,7.82
2022-11-25T12:51:01.856Z,7.80
2022-11-25T12:53:52.366Z,6.20
2022-11-25T12:56:22.821Z,7.00
2022-11-25T12:59:22.680Z,12.40
2022-11-25T13:02:02.564Z,8.55
2022-11-25T13:04:36.355Z,7.97
2022-11-25T13:07:09.149Z,6.80
2022-11-25T13:09:51.987Z,8.10
2022-11-25T13:12:35.436Z,11.32
2022-11-25T13:15:24.682Z,12.02
2022-11-25T13:17:55.616Z,5.85
2022-11-25T13:20:25.958Z,9.80
2022-11-25T13:23:03.517Z,8.70
2022-11-25T13:25:31.347Z,8.82
2022-11-25T13:28:00.090Z,8.13
2022-11-25T13:30:33.269Z,9.40
2022-11-25T13:33:23.344Z,8.73
2022-11-25T13:35:50.482Z,10.32
2022-11-25T13:38:37.430Z,8.05
2022-11-25T13:41:17.009Z,11.10
2022-11-25T13:44:01.731Z,12.05
2022-11-25T13:46:39.106Z,10.50
2022-11-25T13:49:22.130Z,9.38
2022-11-25T13:51:50.555Z,9.32
2022-11-25T13:54:23.848Z,7.80
2022-11-25T13:57:05.082Z,9.70
2022-11-25T13:59:36.915Z,8.93
2022-11-25T14:02:25.548Z,8.32
2022-11-25T14:05:11.689Z,16.25
2022-11-25T14:07:38.956Z,12.52
2022-11-25T14:10:17.959Z,9.10
2022-11-25T14:12:49.116Z,13.73
2022-11-25T14:15:22.342Z,7.50
2022-11-25T14:18:04.521Z,9.95
2022-11-25T14:20:34.932Z,10.77
2022-11-25T14:23:24.225Z,10.32
2022-11-25T14:25:53.602Z,8.00
2022-11-25T14:28:20.853Z,11.85
2022-11-25T14:30:53.605Z,10.55
2022-11-25T14:33:46.976Z,11.93
2022-11-25T14:36:16.156Z,8.90
2022-11-25T14:38:50.513Z,11.00
2022-11-25T14:41:20.936Z,10.57
2022-11-25T14:43:51.832Z,12.32
2022-11-25T14:46:21.021Z,12.60
2022-11-25T14:49:30.692Z,10.70
2022-11-25T14:51:57.674Z,10.57
2022-11-25T14:54:25.220Z,12.75
2022-11-25T14:56:53.392Z,13.75
2022-11-25T14:59:21.974Z,9.48
2022-11-25T15:01:55.795Z,9.75
2022-11-25T15:04:24.642Z,13.23
2022-11-25T15:07:00.865Z,14.70
2022-11-25T15:09:29.623Z,9.65
2022-11-25T15:11:59.139Z,11.85
2022-11-25T15:14:34.209Z,11.98
2022-11-25T15:17:08.488Z,12.50
2022-11-25T15:19:37.577Z,9.68
2022-11-25T15:22:24.838Z,11.45
2022-11-25T15:24:55.781Z,14.95
2022-11-25T15:27:28.448Z,11.30
2022-11-25T15:29:57.090Z,10.67
2022-11-25T15:32:28.664Z,11.65
2022-11-25T15:34:58.156Z,14.25
2022-11-25T15:37:26.090Z,14.27
2022-11-25T15:40:12.219Z,10.45
2022-11-25T15:42:43.103Z,11.00
2022-11-25T15:45:18.722Z,10.15
2022-11-25T15:47:46.302Z,9.63
2022-11-25T15:50:13.943Z,12.18
2022-11-25T15:52:41.781Z,12.85
2022-11-25T15:55:19.177Z,13.63
2022-11-25T15:57:49.960Z,9.70
2022-11-25T16:00:19.066Z,14.05
2022-11-25T16:02:46.195Z,15.10
2022-11-25T16:05:16.446Z,10.60
2022-11-25T16:07:52.618Z,13.47
2022-11-25T16:10:27.771Z,18.20
2022-11-25T16:13:19.600Z,11.63
2022-11-25T16:15:51.701Z,12.45
2022-11-25T16:18:39.231Z,15.13
2022-11-25T16:21:19.341Z,14.53
2022-11-25T16:23:48.362Z,14.57
2022-11-25T16:26:23.675Z,13.10
2022-11-25T16:28:53.183Z,17.02
2022-11-25T16:31:20.787Z,15.27
2022-11-25T16:33:48.809Z,14.93
2022-11-25T16:36:16.469Z,12.50
2022-11-25T16:38:44.437Z,12.18
2022-11-25T16:41:18.083Z,14.70
2022-11-25T16:43:46.170Z,15.13
2022-11-25T16:46:18.439Z,11.53
2022-11-25T16:48:46.344Z,15.48
2022-11-25T16:51:31.712Z,17.05
2022-11-25T16:53:58.998Z,23.02
2022-11-25T16:56:28.651Z,22.27
2022-11-25T16:58:56.073Z,15.53
2022-11-25T17:01:24.660Z,12.90
2022-11-25T17:03:52.485Z,16.42
2022-11-25T17:06:22.672Z,15.65
2022-11-25T17:08:51.272Z,21.05
2022-11-25T17:11:43.288Z,15.77
2022-11-25T17:14:23.895Z,14.75
2022-11-25T17:16:51.912Z,15.73
2022-11-25T17:19:19.249Z,16.40
2022-11-25T17:21:47.171Z,17.48
2022-11-25T17:24:19.354Z,17.33
2022-11-25T17:26:48.281Z,23.70
2022-11-25T17:29:17.202Z,16.95
2022-11-25T17:31:45.094Z,15.68
2022-11-25T17:34:16.912Z,20.85
2022-11-25T17:36:45.014Z,17.87
2022-11-25T17:39:13.493Z,13.35
2022-11-25T17:41:42.845Z,16.17
2022-11-25T17:44:23.229Z,19.13
2022-11-25T17:46:51.004Z,21.60
2022-11-25T17:49:18.437Z,18.60
2022-11-25T17:51:45.879Z,18.93
2022-11-25T17:54:13.070Z,18.42
2022-11-25T17:56:41.246Z,26.17
2022-11-25T17:59:12.174Z,16.23
2022-11-25T18:01:41.526Z,16.98
2022-11-25T18:04:22.116Z,15.30
2022-11-25T18:06:49.608Z,12.90
2022-11-25T18:09:17.471Z,15.32
2022-11-25T18:11:47.056Z,12.00
2022-11-25T18:14:17.216Z,17.80
2022-11-25T18:16:44.591Z,10.10
2022-11-25T18:19:13.358Z,10.02
2022-11-25T18:21:41.112Z,17.73
2022-11-25T18:24:08.337Z,14.18
2022-11-25T18:26:41.899Z,18.23
2022-11-25T18:29:14.986Z,16.53
2022-11-25T18:31:42.486Z,20.65
2022-11-25T18:34:16.405Z,18.05
2022-11-25T18:36:44.214Z,17.33
2022-11-25T18:39:11.851Z,20.38
2022-11-25T18:41:40.106Z,20.15
2022-11-25T18:44:08.175Z,16.77
2022-11-25T18:46:38.281Z,12.88
2022-11-25T18:49:15.425Z,20.92
2022-11-25T18:51:42.883Z,18.58
2022-11-25T18:54:10.441Z,16.23
2022-11-25T18:56:39.895Z,15.80
2022-11-25T18:59:09.461Z,20.73
2022-11-25T19:01:37.055Z,21.30
2022-11-25T19:04:04.617Z,17.65
2022-11-25T19:06:32.646Z,18.77
2022-11-25T19:09:00.082Z,16.02
2022-11-25T19:11:30.262Z,24.23
2022-11-25T19:14:02.461Z,22.35
2022-11-25T19:16:29.687Z,18.67
2022-11-25T19:18:56.919Z,28.52
2022-11-25T19:21:24.086Z,23.98
2022-11-25T19:23:51.360Z,25.30
2022-11-25T19:26:20.735Z,29.35
2022-11-25T19:28:50.820Z,24.08
2022-11-25T19:31:18.988Z,29.67
2022-11-25T19:33:47.750Z,21.50
2022-11-25T19:36:22.176Z,17.48
2022-11-25T19:38:49.313Z,17.77
2022-11-25T19:41:16.410Z,14.77
2022-11-25T19:43:43.582Z,13.43
2022-11-25T19:46:29.090Z,15.75
2022-11-25T19:48:59.551Z,15.93
2022-11-25T19:51:27.977Z,16.58
2022-11-25T19:53:55.401Z,16.67
2022-11-25T19:56:24.136Z,15.75
2022-11-25T19:58:52.770Z,17.98
2022-11-25T20:01:20.980Z,17.35
2022-11-25T20:03:50.334Z,16.92
2022-11-25T20:06:19.219Z,15.80
2022-11-25T20:08:46.886Z,15.15
2022-11-25T20:11:15.161Z,18.88
2022-11-25T20:13:43.335Z,12.60
2022-11-25T20:16:22.188Z,22.38
2022-11-25T20:18:50.616Z,24.33
2022-11-25T20:21:21.886Z,19.85
2022-11-25T20:23:50.234Z,30.35
2022-11-25T20:26:19.416Z,22.02
2022-11-25T20:28:46.878Z,25.15
2022-11-25T20:31:14.916Z,20.20
2022-11-25T20:33:42.145Z,20.15
2022-11-25T20:36:14.322Z,19.70
2022-11-25T20:38:46.377Z,15.98
2022-11-25T20:41:14.341Z,22.00
2022-11-25T20:43:43.003Z,21.15
2022-11-25T20:46:18.602Z,22.40
2022-11-25T20:48:46.947Z,21.48
2022-11-25T20:51:17.204Z,24.17
2022-11-25T20:53:46.270Z,20.52
2022-11-25T20:56:15.663Z,17.95
2022-11-25T20:58:43.370Z,19.88
2022-11-25T21:01:10.763Z,14.23
2022-11-25T21:03:37.895Z,15.07
2022-11-25T21:06:13.587Z,18.35
2022-11-25T21:08:45.325Z,18.05
2022-11-25T21:11:12.478Z,16.80
2022-11-25T21:13:39.647Z,16.95
2022-11-25T21:16:06.893Z,15.60
2022-11-25T21:18:34.353Z,17.92
2022-11-25T21:21:01.662Z,19.73
2022-11-25T21:23:29.652Z,12.93
2022-11-25T21:26:05.220Z,12.85
2022-11-25T21:28:33.495Z,15.88
2022-11-25T21:31:01.319Z,18.10
2022-11-25T21:33:29.013Z,16.05
2022-11-25T21:35:56.636Z,15.75
2022-11-25T21:38:25.380Z,14.52
2022-11-25T21:40:53.920Z,14.75
2022-11-25T21:43:23.982Z,15.70
2022-11-25T21:45:53.828Z,13.43
2022-11-25T21:48:24.099Z,14.32
2022-11-25T21:50:52.236Z,15.05
2022-11-25T21:53:21.366Z,12.95
2022-11-25T21:55:49.373Z,13.10
2022-11-25T21:58:18.438Z,15.18
2022-11-25T22:00:50.768Z,13.35
2022-11-25T22:03:19.304Z,11.75
2022-11-25T22:05:48.783Z,11.65
2022-11-25T22:08:17.163Z,12.23
2022-11-25T22:10:46.742Z,15.93
2022-11-25T22:13:18.574Z,14.45
2022-11-25T22:15:46.907Z,14.68
2022-11-25T22:18:28.797Z,12.50
2022-11-25T22:20:56.155Z,13.60
2022-11-25T22:23:23.914Z,11.73
2022-11-25T22:25:52.931Z,13.30
2022-11-25T22:28:22.614Z,14.93
2022-11-25T22:30:51.710Z,17.05
2022-11-25T22:33:19.785Z,11.70
2022-11-25T22:35:47.398Z,11.50
2022-11-25T22:38:15.410Z,13.48
2022-11-25T22:40:44.535Z,16.88
2022-11-25T22:43:18.336Z,14.52
2022-11-25T22:45:46.238Z,12.18
2022-11-25T22:48:15.919Z,12.88
2022-11-25T22:50:44.198Z,19.83
2022-11-25T22:53:15.353Z,18.67
2022-11-25T22:55:42.499Z,14.65
2022-11-25T22:58:10.617Z,16.52
2022-11-25T23:00:39.590Z,12.63
2022-11-25T23:03:08.705Z,15.18
2022-11-25T23:05:37.897Z,13.38
2022-11-25T23:08:16.007Z,15.45
2022-11-25T23:10:45.000Z,16.80
2022-11-25T23:13:13.070Z,13.90
2022-11-25T23:15:42.310Z,12.60
2022-11-25T23:18:13.005Z,14.00
2022-11-25T23:20:40.749Z,13.10
2022-11-25T23:23:19.053Z,14.18
2022-11-25T23:25:46.805Z,12.80
2022-11-25T23:28:14.410Z,14.07
2022-11-25T23:30:43.655Z,14.73
2022-11-25T23:33:17.908Z,13.13
2022-11-25T23:35:45.466Z,10.55
2022-11-25T23:38:18.579Z,12.15
2022-11-25T23:40:45.799Z,10.05
2022-11-25T23:43:16.330Z,11.77
2022-11-25T23:45:49.146Z,12.55
2022-11-25T23:48:18.105Z,12.38
2022-11-25T23:50:46.004Z,13.35
2022-11-25T23:53:25.098Z,15.07
2022-11-25T23:55:52.515Z,11.63
2022-11-25T23:58:21.063Z,10.55
